FACT/CPT METAR and TAF weather

Enter ICAO airport designator
Station Type Date Time Source
FACT METAR 2021/04/13 08:00 UTC NOAA

FACT 130800Z 19005KT CAVOK 19/17 Q1019 NOSIG


Station Type Date Time Source
FACT Decoded METAR 2021/04/13 08:00 UTC NOAA

Cape Town, Cape Town International Airport, South Africa (FACT) 33-59S 018-36E 0M
Apr 13, 2021 - 04:00 AM EDT / 2021.04.13 0800 UTC
Wind: from the S (190 degrees) at 6 MPH (5 KT):0
Visibility: greater than 7 mile(s):0
Temperature: 66 F (19 C)
Dew Point: 62 F (17 C)
Relative Humidity: 88%
Pressure (altimeter): 30.09 in. Hg (1019 hPa)
ob: FACT 130800Z 19005KT CAVOK 19/17 Q1019 NOSIG
cycle: 8

Station Type Date Time Source
FACT TAF 2021/04/13 06:42 UTC NOAA

TAF TAF FACT 130555Z 1306/1412 VRB03KT CAVOK TX32/1312Z TN15/1405Z
BECMG 1313/1315 18013KT PROB40
TEMPO 1316/1324 BKN006 PROB30
TEMPO 1400/1406 3000 BR BKN004

Example: see airport list